Time;durP1;ratioP1;P1;durP2;ratioP2;P2;SDS_P1;SDS_P2;PMS_P1;PMS_P2;Temp;Humidity;BMP_temperature;BMP_pressure;BME280_temperature;BME280_humidity;BME280_pressure;Samples;Min_cycle;Max_cycle;Signal;HPM_P1;HPM_P2
2022/04/27 00:01:54;;;;;;;4.60;3.55;;;;;;;16.08;100.00;100009.34;5022714;22;22691;-71
2022/04/27 00:04:20;;;;;;;5.18;3.60;;;;;;;16.19;100.00;100022.44;5040219;28;20041;-68
2022/04/27 00:06:45;;;;;;;6.57;3.72;;;;;;;16.34;100.00;100026.84;5050305;28;20041;-68
2022/04/27 00:09:11;;;;;;;5.32;3.33;;;;;;;16.14;100.00;100006.47;5051081;28;20036;-68
2022/04/27 00:11:38;;;;;;;4.88;3.85;;;;;;;16.00;100.00;100021.72;5050902;28;20029;-68
2022/04/27 00:14:03;;;;;;;5.03;3.65;;;;;;;15.61;100.00;100027.88;5049479;28;20078;-69
2022/04/27 00:16:30;;;;;;;6.30;3.60;;;;;;;15.83;100.00;100048.16;5051039;28;20029;-69
2022/04/27 00:18:55;;;;;;;5.57;3.90;;;;;;;16.02;100.00;100040.44;5051157;28;20032;-72
2022/04/27 00:21:21;;;;;;;5.30;3.45;;;;;;;15.59;100.00;99998.91;5049741;28;20040;-73
2022/04/27 00:23:46;;;;;;;5.78;3.38;;;;;;;15.68;100.00;99989.97;5051008;28;20029;-68
2022/04/27 00:26:12;;;;;;;4.65;3.35;;;;;;;16.25;100.00;100029.84;5049402;28;20463;-68
2022/04/27 00:28:37;;;;;;;4.75;3.20;;;;;;;16.13;100.00;100030.44;5049369;28;20029;-69
2022/04/27 00:31:03;;;;;;;7.00;3.38;;;;;;;16.04;100.00;100012.97;5048990;28;20179;-68
2022/04/27 00:33:28;;;;;;;6.25;3.67;;;;;;;16.03;100.00;100014.69;5049162;28;20064;-69
2022/04/27 00:35:54;;;;;;;6.72;3.45;;;;;;;15.93;100.00;100020.34;5050643;28;20056;-69
2022/04/27 00:38:19;;;;;;;7.00;3.70;;;;;;;15.94;100.00;100012.59;5050046;28;20037;-69
2022/04/27 00:40:45;;;;;;;6.28;3.70;;;;;;;15.47;100.00;99944.84;5049411;28;20114;-69
2022/04/27 00:43:14;;;;;;;9.00;3.65;;;;;;;15.70;100.00;99954.84;5050472;28;20021;-68
2022/04/27 00:45:40;;;;;;;8.18;3.80;;;;;;;16.11;100.00;100015.16;5050847;28;20478;-69
2022/04/27 00:48:06;;;;;;;5.55;3.72;;;;;;;16.22;100.00;99989.78;5050690;28;20040;-69
2022/04/27 00:50:32;;;;;;;4.82;3.42;;;;;;;15.93;100.00;99922.91;5049985;28;20033;-69
2022/04/27 00:52:59;;;;;;;5.72;3.67;;;;;;;15.77;100.00;99925.41;5050678;28;20029;-74
2022/04/27 00:55:25;;;;;;;5.20;3.45;;;;;;;15.23;100.00;99864.88;5049259;28;20090;-68
2022/04/27 00:57:51;;;;;;;6.30;3.60;;;;;;;15.39;100.00;99906.78;5049182;28;20655;-67
2022/04/27 01:00:17;;;;;;;8.00;4.00;;;;;;;15.11;100.00;99836.47;5049157;28;20490;-68
2022/04/27 01:02:43;;;;;;;8.55;3.85;;;;;;;15.62;100.00;99931.31;5048430;28;20485;-68
2022/04/27 01:05:09;;;;;;;8.45;3.88;;;;;;;15.22;100.00;99876.03;5050042;28;20112;-70
2022/04/27 01:07:37;;;;;;;6.85;3.30;;;;;;;15.15;100.00;99872.09;5050701;28;20029;-68
2022/04/27 01:10:03;;;;;;;5.55;2.92;;;;;;;15.24;100.00;99881.91;5050571;28;20025;-68
2022/04/27 01:12:29;;;;;;;5.32;3.50;;;;;;;15.53;100.00;99904.41;5050217;28;20474;-68
2022/04/27 01:14:54;;;;;;;5.35;3.33;;;;;;;15.58;100.00;99878.56;5050374;28;20032;-69
2022/04/27 01:17:23;;;;;;;5.25;4.07;;;;;;;15.72;100.00;99939.38;5050185;28;20460;-69
2022/04/27 01:19:48;;;;;;;6.63;4.65;;;;;;;15.30;100.00;99940.53;5050264;28;20039;-68
2022/04/27 01:22:14;;;;;;;5.65;4.43;;;;;;;15.07;100.00;99939.97;5050023;28;20610;-68
2022/04/27 01:24:40;;;;;;;6.80;4.45;;;;;;;15.13;100.00;99873.09;5049162;28;20190;-69
2022/04/27 01:27:06;;;;;;;6.45;4.85;;;;;;;15.63;100.00;99939.84;5049982;28;20025;-69
2022/04/27 01:29:33;;;;;;;7.22;4.95;;;;;;;15.34;100.00;99931.78;5050484;28;20044;-70
2022/04/27 01:32:00;;;;;;;5.47;4.20;;;;;;;15.18;100.00;99938.56;5049656;28;20510;-70
2022/04/27 01:34:26;;;;;;;4.78;4.22;;;;;;;15.28;100.00;99913.31;5050176;28;20025;-68
2022/04/27 01:36:54;;;;;;;4.80;4.40;;;;;;;15.28;100.00;99939.78;5049452;28;20162;-69
2022/04/27 01:39:23;;;;;;;6.85;4.40;;;;;;;14.87;100.00;99925.53;5048482;28;20027;-68
2022/04/27 01:41:49;;;;;;;5.82;3.95;;;;;;;15.14;100.00;99938.75;5048941;28;20032;-68
2022/04/27 01:44:14;;;;;;;6.65;4.55;;;;;;;14.97;100.00;99877.28;5049916;28;20036;-69
2022/04/27 01:46:40;;;;;;;6.28;4.20;;;;;;;14.66;100.00;99872.75;5053356;28;20112;-70
2022/04/27 01:49:05;;;;;;;6.70;3.92;;;;;;;14.85;100.00;99932.44;5053841;28;20028;-69
2022/04/27 01:54:15;;;;;;;4.32;3.25;;;;;;;15.50;100.00;99942.16;5053808;28;20445;-69
2022/04/27 01:56:41;;;;;;;4.82;3.42;;;;;;;14.93;100.00;99878.34;5051994;28;20029;-69
2022/04/27 01:59:06;;;;;;;5.85;3.20;;;;;;;14.76;100.00;99948.22;5053847;28;20021;-69
2022/04/27 02:01:32;;;;;;;4.32;3.08;;;;;;;15.35;100.00;99958.25;5053515;28;20470;-69
2022/04/27 02:03:58;;;;;;;6.63;3.38;;;;;;;14.78;100.00;99903.75;5050855;28;20098;-69
2022/04/27 02:06:23;;;;;;;5.32;3.28;;;;;;;14.76;100.00;99914.94;5051491;28;20127;-69
2022/04/27 02:08:49;;;;;;;5.72;3.33;;;;;;;14.94;100.00;99933.72;5052874;28;20094;-69
2022/04/27 02:11:15;;;;;;;5.75;3.40;;;;;;;15.02;100.00;99962.38;5052430;28;20037;-69
2022/04/27 02:13:40;;;;;;;8.07;3.50;;;;;;;14.83;100.00;99924.00;5050465;28;20106;-69
2022/04/27 02:16:06;;;;;;;5.00;3.50;;;;;;;14.69;100.00;99964.75;5049760;28;20021;-71
2022/04/27 02:18:31;;;;;;;3.92;3.20;;;;;;;15.05;100.00;99963.09;5052437;28;20025;-69
2022/04/27 02:20:57;;;;;;;7.57;3.20;;;;;;;14.27;100.00;99888.16;5052885;28;20417;-69
2022/04/27 02:23:23;;;;;;;7.20;3.40;;;;;;;14.60;100.00;99930.16;5052966;28;20087;-70
2022/04/27 02:25:48;;;;;;;4.43;3.22;;;;;;;14.89;100.00;99938.25;5051149;28;20058;-69
2022/04/27 02:28:14;;;;;;;3.55;3.15;;;;;;;14.56;100.00;99941.44;5053184;28;20746;-69
2022/04/27 02:30:40;;;;;;;4.82;3.25;;;;;;;15.00;100.00;100005.97;5052624;28;20163;-69
2022/04/27 02:33:06;;;;;;;5.68;3.60;;;;;;;14.87;100.00;99996.38;5051373;28;20047;-70
2022/04/27 02:35:31;;;;;;;4.93;3.97;;;;;;;14.59;100.00;99978.84;5052820;28;20533;-69
2022/04/27 02:37:56;;;;;;;5.00;3.80;;;;;;;14.76;100.00;99979.75;5051171;28;20037;-69
2022/04/27 02:40:22;;;;;;;5.15;3.83;;;;;;;14.55;100.00;99993.53;5052837;28;20395;-69
2022/04/27 02:42:49;;;;;;;3.92;3.42;;;;;;;14.67;100.00;99956.31;5051275;28;20033;-69
2022/04/27 02:45:14;;;;;;;5.32;3.72;;;;;;;14.28;100.00;99917.97;5046526;28;20031;-69
2022/04/27 02:47:40;;;;;;;6.38;3.97;;;;;;;14.61;100.00;99966.81;5050222;28;20491;-69
2022/04/27 02:52:49;;;;;;;9.77;7.20;;;;;;;13.93;100.00;99875.19;5061338;28;20041;-68
2022/04/27 02:55:15;;;;;;;8.05;7.15;;;;;;;14.43;100.00;99939.50;5052252;28;20037;-68
2022/04/27 02:57:41;;;;;;;6.05;5.10;;;;;;;14.53;100.00;99971.44;5047979;28;20387;-69
2022/04/27 03:00:07;;;;;;;7.80;5.45;;;;;;;14.40;100.00;99983.13;5046622;28;20028;-68
2022/04/27 03:02:33;;;;;;;7.03;5.10;;;;;;;14.13;100.00;99961.25;5072035;28;20052;-69
2022/04/27 03:05:00;;;;;;;5.82;4.60;;;;;;;14.34;100.00;99971.41;5071056;28;20036;-68
2022/04/27 03:07:26;;;;;;;5.97;4.82;;;;;;;13.92;100.00;99876.09;5059054;28;20033;-69
2022/04/27 03:09:52;;;;;;;7.25;3.92;;;;;;;14.09;100.00;99900.91;5068076;28;20024;-68
2022/04/27 03:12:17;;;;;;;5.50;4.00;;;;;;;13.88;100.00;99900.13;5071774;28;20025;-68
2022/04/27 03:14:43;;;;;;;5.53;4.00;;;;;;;14.25;100.00;99968.41;5071788;28;20096;-68
2022/04/27 03:17:08;;;;;;;4.57;3.85;;;;;;;14.30;100.00;99972.44;5072108;28;20033;-67
2022/04/27 03:19:33;;;;;;;6.25;4.15;;;;;;;14.50;100.00;99992.88;5050309;28;20422;-68
2022/04/27 03:21:59;;;;;;;7.05;4.15;;;;;;;14.42;100.00;99991.56;5049644;28;20033;-71
2022/04/27 03:24:25;;;;;;;5.80;4.10;;;;;;;14.37;100.00;99996.88;5050934;28;20033;-68
2022/04/27 03:26:50;;;;;;;7.05;5.60;;;;;;;14.16;100.00;100007.16;5051103;28;20028;-69
2022/04/27 03:29:16;;;;;;;8.18;6.00;;;;;;;14.16;100.00;99996.94;5052663;28;20534;-67
2022/04/27 03:31:42;;;;;;;10.73;5.30;;;;;;;14.03;100.00;99934.41;5071619;28;20170;-68
2022/04/27 03:34:08;;;;;;;8.35;5.35;;;;;;;13.91;100.00;99974.09;5071411;28;20028;-70
2022/04/27 03:36:33;;;;;;;7.30;4.95;;;;;;;14.13;100.00;99992.75;5071471;28;20032;-69
2022/04/27 03:38:59;;;;;;;7.00;5.47;;;;;;;13.93;100.00;100011.50;5063251;28;20134;-71
2022/04/27 03:41:26;;;;;;;7.75;5.40;;;;;;;14.01;100.00;100018.84;5049838;28;20033;-69
2022/04/27 03:43:52;;;;;;;8.73;5.82;;;;;;;13.96;100.00;100018.22;5050350;28;20087;-69
2022/04/27 03:46:19;;;;;;;7.82;5.57;;;;;;;13.93;100.00;100014.06;5051121;28;20485;-69
2022/04/27 03:48:45;;;;;;;6.15;5.18;;;;;;;13.86;100.00;99983.69;5050556;28;20414;-70
2022/04/27 03:51:10;;;;;;;7.60;5.80;;;;;;;14.19;100.00;100020.63;5050593;28;20025;-70
2022/04/27 03:53:36;;;;;;;7.53;6.63;;;;;;;13.49;100.00;99989.44;5051042;28;20036;-69
2022/04/27 03:56:02;;;;;;;8.13;6.07;;;;;;;14.20;100.00;100024.03;5049381;28;20025;-68
2022/04/27 03:58:27;;;;;;;9.60;6.97;;;;;;;13.96;100.00;100022.47;5049831;28;20028;-69
2022/04/27 04:00:52;;;;;;;9.23;7.15;;;;;;;14.44;100.00;100023.84;5050711;28;20047;-68
2022/04/27 04:03:18;;;;;;;9.35;7.68;;;;;;;14.21;100.00;99965.16;5050667;28;20041;-69
2022/04/27 04:05:44;;;;;;;8.35;6.30;;;;;;;15.01;100.00;100022.19;5050094;28;20025;-72
2022/04/27 04:08:09;;;;;;;9.15;6.00;;;;;;;14.90;100.00;100047.41;5050847;28;20061;-70
2022/04/27 04:10:35;;;;;;;6.95;6.30;;;;;;;14.27;100.00;100018.59;5050876;28;20037;-69
2022/04/27 04:13:02;;;;;;;8.63;6.57;;;;;;;15.02;100.00;100032.34;5051423;28;20036;-69
2022/04/27 04:15:27;;;;;;;9.07;7.10;;;;;;;14.22;100.00;100045.25;5051701;28;20059;-70
2022/04/27 04:17:53;;;;;;;7.78;6.50;;;;;;;14.37;100.00;100040.34;5051514;28;20060;-70
2022/04/27 04:20:18;;;;;;;7.47;5.93;;;;;;;14.14;100.00;100007.22;5049787;28;20122;-70
2022/04/27 04:22:45;;;;;;;6.57;5.45;;;;;;;14.17;100.00;100062.50;5050985;28;20025;-70
2022/04/27 04:30:40;;;;;;;11.18;6.40;;;;;;;13.96;100.00;100009.72;5050837;28;20051;-70
2022/04/27 04:33:06;;;;;;;8.93;5.97;;;;;;;14.26;100.00;100022.03;5050681;28;20033;-70
2022/04/27 04:35:32;;;;;;;7.88;5.00;;;;;;;15.02;100.00;100062.22;5050626;28;20465;-70
2022/04/27 04:37:58;;;;;;;7.60;5.68;;;;;;;14.64;100.00;100076.69;5051194;28;20079;-71
2022/04/27 04:40:23;;;;;;;8.27;5.45;;;;;;;14.83;100.00;100085.28;5049342;28;20057;-70
2022/04/27 04:42:48;;;;;;;6.55;5.63;;;;;;;14.27;100.00;100022.88;5050752;28;20496;-71
2022/04/27 04:45:14;;;;;;;6.82;6.00;;;;;;;14.54;100.00;100042.19;5049847;28;20025;-76
2022/04/27 04:47:42;;;;;;;8.68;5.25;;;;;;;15.02;100.00;100086.13;5050981;28;20024;-71
2022/04/27 04:50:09;;;;;;;9.13;4.90;;;;;;;15.26;100.00;100038.06;5050815;28;20094;-72
2022/04/27 04:52:34;;;;;;;7.35;4.82;;;;;;;15.84;100.00;100090.03;5049619;28;20520;-71
2022/04/27 04:54:59;;;;;;;8.38;4.35;;;;;;;15.15;100.00;100061.59;5049214;28;20049;-70
2022/04/27 04:57:25;;;;;;;7.53;4.45;;;;;;;15.54;100.00;100066.69;5050585;28;20119;-70
2022/04/27 04:59:50;;;;;;;7.28;5.05;;;;;;;15.23;100.00;100049.28;5050447;28;20087;-71
2022/04/27 05:02:16;;;;;;;6.13;5.50;;;;;;;15.72;100.00;100121.38;5050040;28;20049;-71
2022/04/27 05:04:41;;;;;;;7.80;5.22;;;;;;;16.18;100.00;100108.03;5049793;28;20395;-71
2022/04/27 05:07:07;;;;;;;14.05;8.63;;;;;;;16.65;100.00;100108.25;5048616;28;20032;-71
2022/04/27 05:09:32;;;;;;;7.65;5.15;;;;;;;16.51;100.00;100069.63;5050037;28;20032;-71
2022/04/27 05:11:58;;;;;;;7.25;5.00;;;;;;;17.02;100.00;100120.88;5048943;28;20021;-70
2022/04/27 05:14:23;;;;;;;5.53;4.85;;;;;;;16.42;100.00;100135.88;5048730;28;20071;-70
2022/04/27 05:16:48;;;;;;;8.75;5.75;;;;;;;17.51;100.00;100125.09;5048610;28;20526;-72
2022/04/27 05:19:14;;;;;;;9.27;5.45;;;;;;;16.84;100.00;100037.91;5051707;28;20037;-72
2022/04/27 05:21:40;;;;;;;8.52;6.13;;;;;;;17.47;100.00;100140.75;5053926;28;20033;-71
2022/04/27 05:24:05;;;;;;;10.38;6.53;;;;;;;17.07;100.00;100142.81;5053959;28;20115;-71
2022/04/27 05:26:31;;;;;;;6.07;4.13;;;;;;;17.39;100.00;100141.13;5052793;28;20116;-72
2022/04/27 05:31:57;;;;;;;6.05;4.40;;;;;;;16.84;100.00;100144.91;5054140;28;20040;-71
2022/04/27 05:34:23;;;;;;;;;;;;;;;17.02;100.00;100149.97;5054458;28;20044;-71
2022/04/27 05:36:50;;;;;;;6.60;4.50;;;;;;;16.73;100.00;100112.09;5053919;28;19913;-71
2022/04/27 05:39:15;;;;;;;7.38;4.65;;;;;;;17.00;100.00;100136.38;5051388;28;20041;-70
2022/04/27 05:41:41;;;;;;;6.47;4.82;;;;;;;17.47;100.00;100148.47;5053495;28;20039;-70
2022/04/27 05:44:09;;;;;;;7.97;5.25;;;;;;;16.65;100.00;100103.97;5053647;28;20032;-70
2022/04/27 05:46:41;;;;;;;7.93;5.00;;;;;;;17.32;100.00;100158.66;5052143;28;20457;-70
2022/04/27 05:49:07;;;;;;;9.38;5.20;;;;;;;17.85;100.00;100149.81;5053707;28;20040;-70
2022/04/27 05:51:32;;;;;;;6.63;4.95;;;;;;;17.63;100.00;100167.34;5053558;28;20410;-69
2022/04/27 05:53:58;;;;;;;7.72;4.43;;;;;;;17.25;100.00;100062.22;5053158;28;20372;-69
2022/04/27 05:56:24;;;;;;;5.13;3.70;;;;;;;17.70;100.00;100143.78;5051626;28;20107;-69
2022/04/27 05:58:50;;;;;;;6.50;3.60;;;;;;;18.28;100.00;100176.56;5051360;28;20119;-74
2022/04/27 06:01:16;;;;;;;7.20;3.40;;;;;;;18.29;100.00;100163.59;5052565;28;20036;-69
2022/04/27 06:03:42;;;;;;;5.03;3.40;;;;;;;18.41;100.00;100147.47;5052455;28;20049;-69
2022/04/27 06:06:07;;;;;;;5.00;3.45;;;;;;;17.65;100.00;100173.22;5052735;28;20025;-68
2022/04/27 06:08:33;;;;;;;5.72;3.53;;;;;;;18.62;100.00;100184.88;5052837;28;20029;-70
2022/04/27 06:10:58;;;;;;;5.32;3.47;;;;;;;17.73;100.00;100117.03;5053166;28;20056;-69
2022/04/27 06:13:27;;;;;;;8.00;3.72;;;;;;;18.79;100.00;100145.28;5053010;28;20029;-70
2022/04/27 06:15:52;;;;;;;6.47;3.65;;;;;;;19.04;100.00;100160.94;5053025;28;20033;-69
2022/04/27 06:18:18;;;;;;;5.30;3.25;;;;;;;18.63;100.00;100186.56;5053232;28;20418;-68
2022/04/27 06:20:43;;;;;;;8.52;3.95;;;;;;;19.29;100.00;100170.59;5052887;28;20432;-68
2022/04/27 06:23:09;;;;;;;6.57;3.90;;;;;;;19.13;100.00;100180.19;5051518;28;20117;-68
2022/04/27 06:25:35;;;;;;;5.90;3.20;;;;;;;19.03;100.00;100105.97;5052915;28;20033;-69
2022/04/27 06:28:02;;;;;;;6.90;3.30;;;;;;;19.50;100.00;100146.94;5051345;28;20036;-69
2022/04/27 06:30:27;;;;;;;6.25;3.60;;;;;;;19.37;100.00;100148.59;5052170;28;20098;-69
2022/04/27 06:32:53;;;;;;;5.80;2.78;;;;;;;19.51;100.00;100199.38;5051509;28;20029;-70
2022/04/27 06:35:18;;;;;;;7.90;3.00;;;;;;;19.69;100.00;100157.75;5052955;28;20039;-69
2022/04/27 06:37:44;;;;;;;5.78;2.95;;;;;;;20.63;100.00;100177.50;5052407;28;20052;-69
2022/04/27 06:40:10;;;;;;;5.40;2.60;;;;;;;20.13;100.00;100216.06;5052494;28;20469;-69
2022/04/27 06:42:36;;;;;;;8.25;2.67;;;;;;;20.69;100.00;100202.94;5051302;28;20167;-71
2022/04/27 06:45:05;;;;;;;4.75;2.47;;;;;;;19.89;100.00;100166.81;5052173;28;20107;-72
2022/04/27 06:47:30;;;;;;;4.35;2.90;;;;;;;20.15;100.00;100167.75;5052592;28;20506;-72
2022/04/27 06:49:56;;;;;;;5.57;2.65;;;;;;;19.87;100.00;100190.16;5052512;28;20033;-71
2022/04/27 06:52:21;;;;;;;5.53;2.60;;;;;;;20.69;100.00;100223.63;5052335;28;20087;-72
2022/04/27 06:54:46;;;;;;;6.10;2.83;;;;;;;20.54;100.00;100229.81;5052254;28;20458;-71
2022/04/27 06:57:12;;;;;;;7.00;2.90;;;;;;;20.40;100.00;100238.41;5052182;28;20044;-74
2022/04/27 06:59:37;;;;;;;6.70;2.20;;;;;;;19.72;100.00;100216.09;5052094;28;20033;-71
2022/04/27 07:02:04;;;;;;;5.88;2.42;;;;;;;19.63;100.00;100193.44;5052078;28;20156;-70
2022/04/27 07:04:34;;;;;;;4.60;2.72;;;;;;;19.81;100.00;100228.41;5052196;28;20442;-70
2022/04/27 07:07:00;;;;;;;5.22;2.72;;;;;;;19.99;100.00;100206.63;5052113;28;20119;-69
2022/04/27 07:09:26;;;;;;;6.60;2.75;;;;;;;20.18;100.00;100230.38;5052066;28;20033;-73
2022/04/27 07:11:52;;;;;;;4.63;2.92;;;;;;;20.81;100.00;100242.66;5052211;28;20037;-70
2022/04/27 07:14:21;;;;;;;6.38;2.80;;;;;;;20.72;100.00;100221.66;5051528;28;20480;-70
2022/04/27 07:16:47;;;;;;;5.50;3.15;;;;;;;20.28;100.00;100164.31;5050625;28;20119;-70
2022/04/27 07:19:12;;;;;;;5.68;2.80;;;;;;;20.27;100.00;100227.22;5050340;28;20111;-71
2022/04/27 07:21:39;;;;;;;8.27;2.70;;;;;;;20.67;100.00;100208.22;5050247;28;20029;-70
2022/04/27 07:24:05;;;;;;;3.90;2.42;;;;;;;21.75;100.00;100237.09;5050369;28;20025;-71
2022/04/27 07:26:31;;;;;;;3.85;2.28;;;;;;;21.64;100.00;100224.91;5051691;28;20036;-71
2022/04/27 07:28:57;;;;;;;5.35;2.33;;;;;;;20.54;100.00;100240.94;5051461;28;20031;-69
2022/04/27 07:31:23;;;;;;;4.75;2.33;;;;;;;21.19;100.00;100220.28;5050341;28;20039;-69
2022/04/27 07:33:49;;;;;;;7.15;2.95;;;;;;;21.01;100.00;100239.59;5051527;28;20036;-69
2022/04/27 07:36:14;;;;;;;4.93;2.42;;;;;;;21.06;100.00;100188.41;5051333;28;20025;-69
2022/04/27 07:38:40;;;;;;;7.13;2.83;;;;;;;22.66;100.00;100223.63;5051282;28;20025;-70
2022/04/27 07:41:07;;;;;;;5.50;2.58;;;;;;;22.52;100.00;100223.78;5050673;28;20499;-69
2022/04/27 07:43:32;;;;;;;4.05;2.00;;;;;;;21.72;100.00;100209.66;5051009;28;20210;-69
2022/04/27 07:45:58;;;;;;;5.32;2.00;;;;;;;22.24;100.00;100225.75;5049996;28;20541;-69
2022/04/27 07:48:23;;;;;;;4.60;2.38;;;;;;;22.05;100.00;100234.94;5051248;28;20475;-69
2022/04/27 07:50:49;;;;;;;4.88;2.40;;;;;;;22.14;100.00;100185.94;5049805;28;20151;-69
2022/04/27 07:53:14;;;;;;;6.55;2.25;;;;;;;22.70;100.00;100214.69;5051289;28;20029;-69
2022/04/27 07:55:39;;;;;;;6.85;2.25;;;;;;;22.10;100.00;100209.56;5050788;28;20040;-69
2022/04/27 07:58:05;;;;;;;6.20;2.22;;;;;;;23.14;100.00;100197.41;5049576;28;20518;-69
2022/04/27 08:00:30;;;;;;;7.18;2.20;;;;;;;23.08;100.00;100229.00;5050970;28;20036;-70
2022/04/27 08:02:56;;;;;;;6.40;2.60;;;;;;;23.32;100.00;100230.69;5051014;28;20052;-69
2022/04/27 08:05:22;;;;;;;4.50;2.08;;;;;;;23.81;100.00;100218.19;5049672;28;20040;-69
2022/04/27 08:07:47;;;;;;;5.93;2.50;;;;;;;23.65;100.00;100239.31;5050880;28;20547;-69
2022/04/27 08:10:18;;;;;;;3.83;1.85;;;;;;;22.82;100.00;100244.88;5049256;28;20075;-69
2022/04/27 08:12:49;;;;;;;4.63;2.07;;;;;;;23.17;100.00;100167.81;5051055;28;20025;-68
2022/04/27 08:15:16;;;;;;;5.18;2.00;;;;;;;22.95;100.00;100235.25;5050931;28;20083;-69
2022/04/27 08:17:57;;;;;;;3.85;2.10;;;;;;;22.98;100.00;100247.97;5049863;28;20051;-68
2022/04/27 08:23:16;;;;;;;4.15;2.03;;;;;;;23.06;100.00;100240.44;5050658;28;20575;-68
2022/04/27 08:25:42;;;;;;;3.22;2.22;;;;;;;23.16;100.00;100186.91;5049455;28;20114;-68
2022/04/27 08:28:08;;;;;;;6.32;2.15;;;;;;;24.15;100.00;100229.34;5050468;28;20107;-68
2022/04/27 08:30:36;;;;;;;4.15;2.13;;;;;;;23.33;100.00;100230.59;5050647;28;20040;-70
2022/04/27 08:33:02;;;;;;;3.95;2.13;;;;;;;23.19;100.00;100246.38;5050614;28;20033;-70
2022/04/27 08:35:28;;;;;;;4.57;2.10;;;;;;;23.13;100.00;100226.91;5048879;28;20035;-67
2022/04/27 08:37:54;;;;;;;5.10;2.35;;;;;;;23.87;100.00;100233.25;5049231;28;20143;-71
2022/04/27 08:40:20;;;;;;;3.75;2.20;;;;;;;24.70;94.90;100195.31;5050619;28;20578;-70
2022/04/27 08:42:45;;;;;;;6.53;2.20;;;;;;;23.73;96.99;100182.41;5050688;28;20064;-70
2022/04/27 08:45:11;;;;;;;5.65;2.15;;;;;;;23.77;96.02;100168.22;5049434;28;20056;-70
2022/04/27 08:47:36;;;;;;;7.28;2.20;;;;;;;24.46;83.87;100226.75;5050658;28;20024;-69
2022/04/27 08:50:16;;;;;;;4.38;1.50;;;;;;;23.32;80.76;100179.63;5050159;28;20475;-68
2022/04/27 08:52:42;;;;;;;5.95;2.25;;;;;;;23.80;79.32;100164.56;5051062;28;20056;-69
2022/04/27 08:55:11;;;;;;;3.92;1.80;;;;;;;24.79;74.13;100224.03;5054254;28;20479;-70
2022/04/27 08:57:37;;;;;;;2.67;1.40;;;;;;;23.54;76.17;100215.97;5054333;28;20114;-70
2022/04/27 09:00:06;;;;;;;4.28;1.70;;;;;;;24.30;75.79;100221.16;5054444;28;20021;-69
2022/04/27 09:02:32;;;;;;;3.75;1.55;;;;;;;24.36;72.23;100178.22;5052373;28;20059;-69
2022/04/27 09:05:13;;;;;;;2.40;1.48;;;;;;;24.06;69.37;100146.00;5054430;28;20421;-69
2022/04/27 09:07:52;;;;;;;4.90;1.58;;;;;;;24.73;70.37;100182.06;5054183;28;20472;-69
2022/04/27 09:10:21;;;;;;;2.58;1.60;;;;;;;23.97;69.27;100203.00;5052795;28;20028;-68
2022/04/27 09:12:58;;;;;;;3.90;1.65;;;;;;;24.44;68.94;100147.22;5052423;28;20506;-69
2022/04/27 09:15:25;;;;;;;2.17;1.30;;;;;;;24.33;67.92;100188.88;5052771;28;20031;-69
2022/04/27 09:20:47;;;;;;;4.88;1.40;;;;;;;24.82;64.62;100134.47;5053927;28;20040;-68
2022/04/27 09:23:22;;;;;;;5.90;1.58;;;;;;;25.01;64.14;100139.78;5053691;28;20025;-70
2022/04/27 09:25:51;;;;;;;6.65;1.70;;;;;;;24.91;65.79;100175.34;5052803;28;20036;-69
2022/04/27 09:28:17;;;;;;;3.97;1.55;;;;;;;25.06;64.78;100202.66;5053840;28;20029;-69
2022/04/27 09:30:47;;;;;;;5.28;1.45;;;;;;;24.32;66.66;100182.03;5054254;28;20112;-69
2022/04/27 09:33:12;;;;;;;3.90;1.40;;;;;;;24.85;66.07;100129.84;5053710;28;20112;-68
2022/04/27 09:35:38;;;;;;;3.85;1.80;;;;;;;24.02;67.75;100190.50;5053557;28;20120;-72
2022/04/27 09:38:18;;;;;;;4.20;2.08;;;;;;;24.76;69.97;100181.84;5053513;28;20616;-68
2022/04/27 09:40:49;;;;;;;4.32;1.80;;;;;;;25.22;69.22;100132.72;5053566;28;20402;-69
2022/04/27 09:43:15;;;;;;;5.32;1.67;;;;;;;26.29;65.02;100177.09;5052425;28;20029;-68
2022/04/27 09:45:45;;;;;;;5.00;1.50;;;;;;;25.31;66.48;100176.22;5052293;28;20465;-69
2022/04/27 09:48:20;;;;;;;5.47;1.73;;;;;;;24.73;63.48;100094.47;5051960;28;20129;-69
2022/04/27 09:50:46;;;;;;;3.72;1.52;;;;;;;25.73;62.63;100182.94;5053576;28;20033;-69
2022/04/27 09:53:13;;;;;;;7.38;1.42;;;;;;;24.75;58.45;100094.31;5051954;28;20055;-70
2022/04/27 09:55:50;;;;;;;4.10;1.30;;;;;;;26.07;57.74;100180.81;5053380;28;20029;-74
2022/04/27 09:58:18;;;;;;;4.88;1.40;;;;;;;25.59;58.12;100131.22;5053359;28;20029;-71
2022/04/27 10:00:45;;;;;;;5.03;1.50;;;;;;;25.61;59.60;100168.38;5051610;28;20037;-70
2022/04/27 10:03:15;;;;;;;6.22;1.40;;;;;;;25.18;59.54;100188.63;5053344;28;20059;-70
2022/04/27 10:05:42;;;;;;;4.05;1.88;;;;;;;24.59;62.20;100131.19;5052307;28;20498;-70
2022/04/27 10:08:09;;;;;;;4.45;1.50;;;;;;;25.03;60.99;100160.47;5053286;28;20037;-70
2022/04/27 10:10:38;;;;;;;8.35;1.58;;;;;;;25.16;61.55;100167.09;5053297;28;20040;-70
2022/04/27 10:13:08;;;;;;;3.63;1.70;;;;;;;25.49;63.39;100177.25;5051495;28;20041;-70
2022/04/27 10:15:34;;;;;;;3.90;1.45;;;;;;;24.70;63.48;100157.09;5053030;28;20033;-70
2022/04/27 10:18:00;;;;;;;3.42;1.30;;;;;;;25.45;62.93;100170.66;5051714;28;20514;-70
2022/04/27 10:20:34;;;;;;;5.18;1.42;;;;;;;26.01;63.39;100180.53;5052751;28;20584;-70
2022/04/27 10:23:15;;;;;;;6.97;1.50;;;;;;;25.44;61.51;100179.44;5051669;28;20033;-70
2022/04/27 10:25:41;;;;;;;5.75;1.80;;;;;;;25.91;59.38;100169.25;5052813;28;20057;-70
2022/04/27 10:28:20;;;;;;;5.28;1.80;;;;;;;25.37;59.86;100100.19;5052737;28;20044;-70
2022/04/27 10:30:45;;;;;;;4.07;1.80;;;;;;;24.85;61.58;100155.88;5052555;28;20579;-70
2022/04/27 10:33:10;;;;;;;4.55;1.65;;;;;;;24.63;63.71;100111.75;5051567;28;20108;-70
2022/04/27 10:35:36;;;;;;;5.35;2.00;;;;;;;25.62;64.17;100162.22;5052606;28;20025;-70
2022/04/27 10:38:05;;;;;;;4.97;1.67;;;;;;;25.19;64.82;100120.00;5052719;28;20490;-70
2022/04/27 10:40:38;;;;;;;4.30;1.67;;;;;;;25.21;62.71;100149.31;5050993;28;20120;-70
2022/04/27 10:43:06;;;;;;;5.78;1.70;;;;;;;25.67;63.02;100162.63;5051394;28;20040;-71
2022/04/27 10:45:33;;;;;;;6.50;1.90;;;;;;;25.73;63.29;100138.63;5052740;28;20036;-71
2022/04/27 10:47:59;;;;;;;4.75;1.40;;;;;;;25.31;60.83;100126.75;5051192;28;20029;-71
2022/04/27 10:50:29;;;;;;;5.05;1.92;;;;;;;25.95;59.88;100085.44;5052287;28;20040;-71
2022/04/27 10:52:55;;;;;;;7.90;1.88;;;;;;;24.89;60.95;100118.22;5052222;28;20039;-70
2022/04/27 10:55:38;;;;;;;8.80;1.80;;;;;;;26.20;57.64;100152.69;5052371;28;20029;-71
2022/04/27 10:58:12;;;;;;;10.73;1.70;;;;;;;25.35;58.03;100153.34;5050985;28;20091;-71
2022/04/27 11:01:02;;;;;;;8.13;1.52;;;;;;;26.24;56.38;100143.63;5052425;28;20104;-70
2022/04/27 11:03:35;;;;;;;6.85;1.63;;;;;;;25.50;56.34;100146.81;5049469;28;20053;-71
2022/04/27 11:06:05;;;;;;;8.52;1.52;;;;;;;25.94;56.82;100148.13;5051971;28;20124;-71
2022/04/27 11:09:01;;;;;;;6.57;1.42;;;;;;;26.10;55.36;100146.66;5052224;28;20029;-70
2022/04/27 11:11:28;;;;;;;5.53;1.45;;;;;;;27.03;53.80;100137.16;5050509;28;20059;-72
2022/04/27 11:14:03;;;;;;;8.50;1.67;;;;;;;26.37;55.67;100140.72;5051703;28;20460;-71
2022/04/27 11:16:28;;;;;;;9.38;1.60;;;;;;;25.57;55.58;100127.13;5050603;28;20090;-72
2022/04/27 11:18:59;;;;;;;6.03;1.60;;;;;;;25.48;54.72;100143.53;5050659;28;20033;-73
2022/04/27 11:21:30;;;;;;;10.97;1.97;;;;;;;26.43;55.78;100134.94;5051816;28;20068;-73
2022/04/27 11:23:58;;;;;;;7.55;1.52;;;;;;;26.26;51.70;100073.09;5051602;28;20483;-71
2022/04/27 11:26:24;;;;;;;6.88;1.63;;;;;;;25.83;52.63;100083.13;5051469;28;20025;-72
2022/04/27 11:28:53;;;;;;;6.88;1.40;;;;;;;26.16;52.18;100137.47;5051742;28;20040;-73
2022/04/27 11:31:19;;;;;;;8.02;2.03;;;;;;;26.19;53.03;100130.19;5050476;28;20098;-70
2022/04/27 11:33:44;;;;;;;11.35;1.92;;;;;;;26.36;53.34;100087.75;5050463;28;20033;-70
2022/04/27 11:36:19;;;;;;;4.97;1.70;;;;;;;26.14;51.67;100142.00;5050104;28;20025;-71
2022/04/27 11:38:44;;;;;;;7.95;1.83;;;;;;;26.24;52.33;100088.88;5051408;28;20036;-73
2022/04/27 11:41:14;;;;;;;5.85;1.60;;;;;;;25.42;53.35;100085.00;5051226;28;20514;-71